Time,TemperatureF,DewpointF,PressureIn,WindDirection,WindDirectionDegrees,WindSpeedMPH,WindSpeedGustMPH,Humidity,HourlyPrecipIn,Conditions,Clouds,dailyrainin,SoftwareType,DateUTC
2013-12-30 00:00:00,9.9,-3.8,30.46,NE,46,0.0,1.0,53,0.00,,---,0.00,VWS V14.01,2013-12-30 06:00:00,
2013-12-30 00:01:00,9.8,-4.7,30.46,NE,46,0.0,1.0,51,0.00,,---,0.00,VWS V14.01,2013-12-30 06:01:00,
2013-12-30 00:06:00,9.7,-4.4,30.47,NE,46,0.0,0.0,52,0.00,,---,0.00,VWS V14.01,2013-12-30 06:06:00,
2013-12-30 00:10:00,9.8,-4.7,30.47,NE,46,0.0,3.0,51,0.00,,---,0.00,VWS V14.01,2013-12-30 06:10:00,
2013-12-30 00:11:00,9.6,-4.1,30.46,NE,46,0.0,0.0,53,0.00,,---,0.00,VWS V14.01,2013-12-30 06:11:00,
2013-12-30 00:16:00,9.6,-4.5,30.46,NNE,17,0.0,1.0,52,0.00,,---,0.00,VWS V14.01,2013-12-30 06:16:00,
2013-12-30 00:20:00,9.7,-4.4,30.46,NE,46,0.0,1.0,52,0.00,,---,0.00,VWS V14.01,2013-12-30 06:20:00,
2013-12-30 00:21:00,9.5,-4.6,30.46,NNE,18,0.0,2.0,52,0.00,,---,0.00,VWS V14.01,2013-12-30 06:21:00,
2013-12-30 00:26:00,9.5,-5.0,30.47,NNE,17,0.0,1.0,51,0.00,,---,0.00,VWS V14.01,2013-12-30 06:26:00,
2013-12-30 00:30:00,9.6,-4.5,30.46,NNE,18,0.0,3.0,52,0.00,,---,0.00,VWS V14.01,2013-12-30 06:30:00,
2013-12-30 00:31:00,9.4,-4.7,30.47,NNE,17,1.0,1.0,52,0.00,,---,0.00,VWS V14.01,2013-12-30 06:31:00,
2013-12-30 00:36:00,9.4,-4.7,30.46,NNE,17,0.0,0.0,52,0.00,,---,0.00,VWS V14.01,2013-12-30 06:36:00,
2013-12-30 00:40:00,9.5,-4.6,30.47,NNE,17,0.0,2.0,52,0.00,,---,0.00,VWS V14.01,2013-12-30 06:40:00,
2013-12-30 00:41:00,9.3,-4.0,30.47,NNE,17,0.0,1.0,54,0.00,,---,0.00,VWS V14.01,2013-12-30 06:41:00,
2013-12-30 00:46:00,9.2,-4.4,30.47,NNE,17,0.0,0.0,53,0.00,,---,0.00,VWS V14.01,2013-12-30 06:46:00,
2013-12-30 00:50:00,9.4,-4.3,30.46,NNE,17,0.0,2.0,53,0.00,,---,0.00,VWS V14.01,2013-12-30 06:50:00,
2013-12-30 00:51:00,9.2,-4.4,30.46,NNE,17,0.0,2.0,53,0.00,,---,0.00,VWS V14.01,2013-12-30 06:51:00,
2013-12-30 00:56:00,9.1,-4.6,30.46,NNE,17,0.0,2.0,53,0.00,,---,0.00,VWS V14.01,2013-12-30 06:56:00,
2013-12-30 01:00:00,9.2,-4.4,30.47,NNE,17,0.0,1.0,53,0.00,,---,0.00,VWS V14.01,2013-12-30 07:00:00,
2013-12-30 01:01:00,9.1,-4.6,30.46,NNE,17,0.0,2.0,53,0.00,,---,0.00,VWS V14.01,2013-12-30 07:01:00,
2013-12-30 01:06:00,9.1,-4.6,30.46,NNE,17,0.0,1.0,53,0.00,,---,0.00,VWS V14.01,2013-12-30 07:06:00,
2013-12-30 01:10:00,9.1,-4.9,30.46,NNE,17,0.0,2.0,52,0.00,,---,0.00,VWS V14.01,2013-12-30 07:10:00,
2013-12-30 01:11:00,9.1,-4.6,30.46,NNE,17,0.0,1.0,53,0.00,,---,0.00,VWS V14.01,2013-12-30 07:11:00,
2013-12-30 01:16:00,9.0,-4.6,30.46,NNE,17,0.0,0.0,53,0.00,,---,0.00,VWS V14.01,2013-12-30 07:16:00,
2013-12-30 01:20:00,9.1,-4.6,30.46,NNE,17,0.0,2.0,53,0.00,,---,0.00,VWS V14.01,2013-12-30 07:20:00,
2013-12-30 01:21:00,9.0,-4.2,30.46,NNE,17,0.0,0.0,54,0.00,,---,0.00,VWS V14.01,2013-12-30 07:21:00,
2013-12-30 01:26:00,8.9,-4.3,30.46,NNE,17,0.0,0.0,54,0.00,,---,0.00,VWS V14.01,2013-12-30 07:26:00,
2013-12-30 01:30:00,9.0,-4.6,30.46,NNE,17,0.0,1.0,53,0.00,,---,0.00,VWS V14.01,2013-12-30 07:30:00,
2013-12-30 01:31:00,8.8,-4.1,30.46,NNE,17,0.0,0.0,55,0.00,,---,0.00,VWS V14.01,2013-12-30 07:31:00,
2013-12-30 01:36:00,8.8,-2.6,30.46,NNE,17,0.0,0.0,59,0.00,,---,0.00,VWS V14.01,2013-12-30 07:36:00,
2013-12-30 01:40:00,8.9,-4.3,30.45,NNE,17,0.0,0.0,54,0.00,,---,0.00,VWS V14.01,2013-12-30 07:40:00,
2013-12-30 01:41:00,8.7,-3.8,30.45,NNE,17,0.0,0.0,56,0.00,,---,0.00,VWS V14.01,2013-12-30 07:41:00,
2013-12-30 01:46:00,8.6,-4.2,30.45,NNE,17,0.0,0.0,55,0.00,,---,0.00,VWS V14.01,2013-12-30 07:46:00,
2013-12-30 01:50:00,8.8,-3.0,30.46,NNE,17,0.0,0.0,58,0.00,,---,0.00,VWS V14.01,2013-12-30 07:50:00,
2013-12-30 01:51:00,8.6,-3.1,30.45,NNE,17,0.0,0.0,58,0.00,,---,0.00,VWS V14.01,2013-12-30 07:51:00,
2013-12-30 01:56:00,8.6,-3.9,30.45,NNE,17,0.0,0.0,56,0.00,,---,0.00,VWS V14.01,2013-12-30 07:56:00,
2013-12-30 02:00:00,8.6,-3.9,30.45,NNE,17,0.0,1.0,56,0.00,,---,0.00,VWS V14.01,2013-12-30 08:00:00,
2013-12-30 02:01:00,8.5,-4.0,30.45,NNE,17,0.0,0.0,56,0.00,,---,0.00,VWS V14.01,2013-12-30 08:01:00,
2013-12-30 02:06:00,8.5,-4.0,30.45,NNE,17,0.0,0.0,56,0.00,,---,0.00,VWS V14.01,2013-12-30 08:06:00,
2013-12-30 02:10:00,8.6,-3.5,30.45,NNE,17,0.0,0.0,57,0.00,,---,0.00,VWS V14.01,2013-12-30 08:10:00,
2013-12-30 02:11:00,8.4,-3.3,30.46,NNE,17,0.0,1.0,58,0.00,,---,0.00,VWS V14.01,2013-12-30 08:11:00,
2013-12-30 02:16:00,8.4,-3.0,30.46,NNE,17,0.0,0.0,59,0.00,,---,0.00,VWS V14.01,2013-12-30 08:16:00,
2013-12-30 02:20:00,8.5,-4.0,30.46,NNE,17,0.0,0.0,56,0.00,,---,0.00,VWS V14.01,2013-12-30 08:20:00,
2013-12-30 02:21:00,8.3,-3.8,30.46,NNE,17,0.0,0.0,57,0.00,,---,0.00,VWS V14.01,2013-12-30 08:21:00,
2013-12-30 02:26:00,8.2,-4.2,30.46,NNE,17,0.0,2.0,56,0.00,,---,0.00,VWS V14.01,2013-12-30 08:26:00,
2013-12-30 02:30:00,8.4,-3.0,30.46,NNE,17,0.0,1.0,59,0.00,,---,0.00,VWS V14.01,2013-12-30 08:30:00,
2013-12-30 02:31:00,8.2,-3.9,30.46,NNE,17,0.0,2.0,57,0.00,,---,0.00,VWS V14.01,2013-12-30 08:31:00,
2013-12-30 02:36:00,8.2,-3.9,30.46,NNE,17,0.0,0.0,57,0.00,,---,0.00,VWS V14.01,2013-12-30 08:36:00,
2013-12-30 02:40:00,8.2,-4.2,30.46,NNE,17,0.0,0.0,56,0.00,,---,0.00,VWS V14.01,2013-12-30 08:40:00,
2013-12-30 02:41:00,8.1,-3.6,30.46,NNE,17,0.0,0.0,58,0.00,,---,0.00,VWS V14.01,2013-12-30 08:41:00,
2013-12-30 02:46:00,8.1,-4.0,30.47,NNE,17,0.0,0.0,57,0.00,,---,0.00,VWS V14.01,2013-12-30 08:46:00,
2013-12-30 02:50:00,8.2,-3.9,30.46,NNE,17,0.0,2.0,57,0.00,,---,0.00,VWS V14.01,2013-12-30 08:50:00,
2013-12-30 02:51:00,8.0,-3.7,30.47,NNE,17,0.0,0.0,58,0.00,,---,0.00,VWS V14.01,2013-12-30 08:51:00,
2013-12-30 02:56:00,8.0,-3.0,30.47,NNE,17,0.0,1.0,60,0.00,,---,0.00,VWS V14.01,2013-12-30 08:56:00,
2013-12-30 03:00:00,8.1,-4.0,30.46,NNE,17,0.0,0.0,57,0.00,,---,0.00,VWS V14.01,2013-12-30 09:00:00,
2013-12-30 03:01:00,8.0,-3.0,30.47,NNE,17,0.0,1.0,60,0.00,,---,0.00,VWS V14.01,2013-12-30 09:01:00,
2013-12-30 03:06:00,8.0,-3.0,30.46,NNE,17,0.0,0.0,60,0.00,,---,0.00,VWS V14.01,2013-12-30 09:06:00,
2013-12-30 03:10:00,8.0,-3.0,30.47,NNE,17,0.0,1.0,60,0.00,,---,0.00,VWS V14.01,2013-12-30 09:10:00,
2013-12-30 03:11:00,8.0,-3.0,30.46,NNE,17,0.0,0.0,60,0.00,,---,0.00,VWS V14.01,2013-12-30 09:11:00,
2013-12-30 03:16:00,8.0,-2.7,30.46,NNE,17,0.0,0.0,61,0.00,,---,0.00,VWS V14.01,2013-12-30 09:16:00,
2013-12-30 03:20:00,8.0,-3.3,30.47,NNE,17,0.0,1.0,59,0.00,,---,0.00,VWS V14.01,2013-12-30 09:20:00,
2013-12-30 03:21:00,8.1,-1.9,30.46,NNE,17,0.0,1.0,63,0.00,,---,0.00,VWS V14.01,2013-12-30 09:21:00,
2013-12-30 03:26:00,8.2,-1.8,30.45,NNE,17,0.0,1.0,63,0.00,,---,0.00,VWS V14.01,2013-12-30 09:26:00,
2013-12-30 03:30:00,8.0,-2.7,30.46,NNE,17,0.0,0.0,61,0.00,,---,0.00,VWS V14.01,2013-12-30 09:30:00,
2013-12-30 03:31:00,8.3,-1.7,30.45,NNE,17,0.0,2.0,63,0.00,,---,0.00,VWS V14.01,2013-12-30 09:31:00,
2013-12-30 03:36:00,8.4,-1.3,30.46,NNE,17,0.0,0.0,64,0.00,,---,0.00,VWS V14.01,2013-12-30 09:36:00,
2013-12-30 03:40:00,8.2,-1.5,30.45,NNE,17,1.0,3.0,64,0.00,,---,0.00,VWS V14.01,2013-12-30 09:40:00,
2013-12-30 03:41:00,8.5,-1.8,30.45,NNE,17,0.0,3.0,62,0.00,,---,0.00,VWS V14.01,2013-12-30 09:41:00,
2013-12-30 03:46:00,8.6,-1.7,30.45,NNE,17,0.0,1.0,62,0.00,,---,0.00,VWS V14.01,2013-12-30 09:46:00,
2013-12-30 03:50:00,8.4,-1.3,30.46,NNE,17,0.0,2.0,64,0.00,,---,0.00,VWS V14.01,2013-12-30 09:50:00,
2013-12-30 03:51:00,8.7,-1.6,30.45,NNE,17,0.0,1.0,62,0.00,,---,0.00,VWS V14.01,2013-12-30 09:51:00,
2013-12-30 03:56:00,8.7,-1.6,30.45,East,82,1.0,4.0,62,0.00,,---,0.00,VWS V14.01,2013-12-30 09:56:00,
2013-12-30 04:00:00,8.6,-1.7,30.45,NNE,17,0.0,3.0,62,0.00,,---,0.00,VWS V14.01,2013-12-30 10:00:00,
2013-12-30 04:01:00,8.9,-1.8,30.45,East,82,0.0,4.0,61,0.00,,---,0.00,VWS V14.01,2013-12-30 10:01:00,
2013-12-30 04:06:00,8.9,-1.8,30.46,East,82,0.0,2.0,61,0.00,,---,0.00,VWS V14.01,2013-12-30 10:06:00,
2013-12-30 04:10:00,8.7,-1.6,30.45,NNE,17,1.0,1.0,62,0.00,,---,0.00,VWS V14.01,2013-12-30 10:10:00,
2013-12-30 04:11:00,9.0,-2.4,30.46,ESE,105,0.0,4.0,59,0.00,,---,0.00,VWS V14.01,2013-12-30 10:11:00,
2013-12-30 04:16:00,9.1,-2.3,30.46,ESE,105,0.0,2.0,59,0.00,,---,0.00,VWS V14.01,2013-12-30 10:16:00,
2013-12-30 04:20:00,8.9,-1.5,30.46,East,82,0.0,4.0,62,0.00,,---,0.00,VWS V14.01,2013-12-30 10:20:00,
2013-12-30 04:21:00,9.1,-2.3,30.46,ESE,105,0.0,4.0,59,0.00,,---,0.00,VWS V14.01,2013-12-30 10:21:00,
2013-12-30 04:26:00,9.1,-2.3,30.45,ESE,105,0.0,1.0,59,0.00,,---,0.00,VWS V14.01,2013-12-30 10:26:00,
2013-12-30 04:30:00,9.0,-2.4,30.46,ESE,105,1.0,4.0,59,0.00,,---,0.00,VWS V14.01,2013-12-30 10:30:00,
2013-12-30 04:31:00,9.2,-1.9,30.45,ESE,105,0.0,1.0,60,0.00,,---,0.00,VWS V14.01,2013-12-30 10:31:00,
2013-12-30 04:36:00,9.2,-1.9,30.45,ESE,105,1.0,1.0,60,0.00,,---,0.00,VWS V14.01,2013-12-30 10:36:00,
2013-12-30 04:40:00,9.1,-2.3,30.46,ESE,105,0.0,4.0,59,0.00,,---,0.00,VWS V14.01,2013-12-30 10:40:00,
2013-12-30 04:41:00,9.3,-2.1,30.46,East,100,0.0,5.0,59,0.00,,---,0.00,VWS V14.01,2013-12-30 10:41:00,
2013-12-30 04:46:00,9.3,-1.8,30.45,East,99,1.0,4.0,60,0.00,,---,0.00,VWS V14.01,2013-12-30 10:46:00,
2013-12-30 04:50:00,9.2,-1.9,30.45,ESE,105,0.0,2.0,60,0.00,,---,0.00,VWS V14.01,2013-12-30 10:50:00,
2013-12-30 04:51:00,9.3,-1.4,30.46,East,99,1.0,4.0,61,0.00,,---,0.00,VWS V14.01,2013-12-30 10:51:00,
2013-12-30 04:56:00,9.3,-2.5,30.45,East,99,0.0,5.0,58,0.00,,---,0.00,VWS V14.01,2013-12-30 10:56:00,
2013-12-30 05:00:00,9.3,-1.8,30.45,East,100,0.0,5.0,60,0.00,,---,0.00,VWS V14.01,2013-12-30 11:00:00,
2013-12-30 05:01:00,9.2,-2.6,30.45,East,90,0.0,5.0,58,0.00,,---,0.00,VWS V14.01,2013-12-30 11:01:00,
2013-12-30 05:06:00,9.3,-2.1,30.45,East,83,0.0,3.0,59,0.00,,---,0.00,VWS V14.01,2013-12-30 11:06:00,
2013-12-30 05:10:00,9.3,-2.5,30.46,East,99,4.0,4.0,58,0.00,,---,0.00,VWS V14.01,2013-12-30 11:10:00,
2013-12-30 05:11:00,9.3,-2.5,30.47,East,83,0.0,3.0,58,0.00,,---,0.00,VWS V14.01,2013-12-30 11:11:00,
2013-12-30 05:16:00,9.3,-2.1,30.45,East,83,0.0,2.0,59,0.00,,---,0.00,VWS V14.01,2013-12-30 11:16:00,
2013-12-30 05:20:00,9.3,-2.1,30.45,East,89,1.0,5.0,59,0.00,,---,0.00,VWS V14.01,2013-12-30 11:20:00,
2013-12-30 05:21:00,9.3,-1.8,30.45,East,83,0.0,2.0,60,0.00,,---,0.00,VWS V14.01,2013-12-30 11:21:00,
2013-12-30 05:26:00,9.3,-1.8,30.45,East,83,0.0,2.0,60,0.00,,---,0.00,VWS V14.01,2013-12-30 11:26:00,
2013-12-30 05:30:00,9.3,-2.1,30.46,East,83,0.0,3.0,59,0.00,,---,0.00,VWS V14.01,2013-12-30 11:30:00,
2013-12-30 05:31:00,9.4,-1.7,30.45,East,84,1.0,3.0,60,0.00,,---,0.00,VWS V14.01,2013-12-30 11:31:00,
2013-12-30 05:36:00,9.4,-1.3,30.45,East,89,0.0,3.0,61,0.00,,---,0.00,VWS V14.01,2013-12-30 11:36:00,
2013-12-30 05:40:00,9.3,-1.8,30.45,East,83,0.0,2.0,60,0.00,,---,0.00,VWS V14.01,2013-12-30 11:40:00,
2013-12-30 05:41:00,9.4,-1.3,30.45,East,89,1.0,3.0,61,0.00,,---,0.00,VWS V14.01,2013-12-30 11:41:00,
2013-12-30 05:46:00,9.4,-1.3,30.45,East,89,0.0,0.0,61,0.00,,---,0.00,VWS V14.01,2013-12-30 11:46:00,
2013-12-30 05:50:00,9.4,-1.7,30.45,East,90,0.0,4.0,60,0.00,,---,0.00,VWS V14.01,2013-12-30 11:50:00,
2013-12-30 05:51:00,9.5,-0.9,30.44,East,96,4.0,5.0,62,0.00,,---,0.00,VWS V14.01,2013-12-30 11:51:00,
2013-12-30 05:56:00,9.5,-0.9,30.44,East,95,0.0,0.0,62,0.00,,---,0.00,VWS V14.01,2013-12-30 11:56:00,
2013-12-30 06:00:00,9.4,-1.3,30.45,East,89,0.0,3.0,61,0.00,,---,0.00,VWS V14.01,2013-12-30 12:00:00,
2013-12-30 06:01:00,9.6,-0.4,30.44,East,95,0.0,2.0,63,0.00,,---,0.00,VWS V14.01,2013-12-30 12:01:00,
2013-12-30 06:06:00,9.7,-0.7,30.44,East,85,0.0,2.0,62,0.00,,---,0.00,VWS V14.01,2013-12-30 12:06:00,
2013-12-30 06:10:00,9.5,-1.2,30.45,East,95,0.0,5.0,61,0.00,,---,0.00,VWS V14.01,2013-12-30 12:10:00,
2013-12-30 06:11:00,9.8,-0.3,30.44,East,85,0.0,2.0,63,0.00,,---,0.00,VWS V14.01,2013-12-30 12:11:00,
2013-12-30 06:16:00,10.0,-0.1,30.44,ESE,116,0.0,1.0,63,0.00,,---,0.00,VWS V14.01,2013-12-30 12:16:00,
2013-12-30 06:20:00,9.7,-0.7,30.44,East,85,1.0,3.0,62,0.00,,---,0.00,VWS V14.01,2013-12-30 12:20:00,
2013-12-30 06:21:00,10.0,-0.4,30.43,East,92,0.0,5.0,62,0.00,,---,0.00,VWS V14.01,2013-12-30 12:21:00,
2013-12-30 06:26:00,10.1,-0.3,30.44,East,88,2.0,2.0,62,0.00,,---,0.00,VWS V14.01,2013-12-30 12:26:00,
2013-12-30 06:30:00,9.9,-0.2,30.44,East,85,0.0,2.0,63,0.00,,---,0.00,VWS V14.01,2013-12-30 12:30:00,
2013-12-30 06:31:00,10.1,-0.3,30.44,East,88,0.0,3.0,62,0.00,,---,0.00,VWS V14.01,2013-12-30 12:31:00,
2013-12-30 06:36:00,10.1,-0.3,30.44,East,88,0.0,0.0,62,0.00,,---,0.00,VWS V14.01,2013-12-30 12:36:00,
2013-12-30 06:40:00,10.1,-0.3,30.43,ENE,78,0.0,5.0,62,0.00,,---,0.00,VWS V14.01,2013-12-30 12:40:00,
2013-12-30 06:41:00,10.1,-0.3,30.44,East,88,0.0,0.0,62,0.00,,---,0.00,VWS V14.01,2013-12-30 12:41:00,
2013-12-30 06:46:00,10.1,-0.3,30.44,East,88,0.0,0.0,62,0.00,,---,0.00,VWS V14.01,2013-12-30 12:46:00,
2013-12-30 06:50:00,10.1,-0.3,30.44,East,88,0.0,3.0,62,0.00,,---,0.00,VWS V14.01,2013-12-30 12:50:00,
2013-12-30 06:51:00,10.1,-0.3,30.43,East,88,0.0,0.0,62,0.00,,---,0.00,VWS V14.01,2013-12-30 12:51:00,
2013-12-30 06:56:00,10.1,-0.3,30.43,East,88,0.0,0.0,62,0.00,,---,0.00,VWS V14.01,2013-12-30 12:56:00,
2013-12-30 07:00:00,10.1,-0.3,30.44,East,88,0.0,0.0,62,0.00,,---,0.00,VWS V14.01,2013-12-30 13:00:00,
2013-12-30 07:01:00,10.4,-0.4,30.43,East,86,0.0,3.0,61,0.00,,---,0.00,VWS V14.01,2013-12-30 13:01:00,
2013-12-30 07:06:00,10.4,-0.4,30.43,ESE,123,2.0,4.0,61,0.00,,---,0.00,VWS V14.01,2013-12-30 13:06:00,
2013-12-30 07:10:00,10.1,-0.3,30.43,East,88,0.0,0.0,62,0.00,,---,0.00,VWS V14.01,2013-12-30 13:10:00,
2013-12-30 07:11:00,10.5,-0.3,30.43,ESE,123,2.0,4.0,61,0.00,,---,0.00,VWS V14.01,2013-12-30 13:11:00,
2013-12-30 07:16:00,10.5,0.1,30.42,ESE,116,1.0,2.0,62,0.00,,---,0.00,VWS V14.01,2013-12-30 13:16:00,
2013-12-30 07:20:00,10.4,-0.4,30.43,East,87,0.0,3.0,61,0.00,,---,0.00,VWS V14.01,2013-12-30 13:20:00,
2013-12-30 07:21:00,10.6,-0.2,30.42,ESE,113,1.0,2.0,61,0.00,,---,0.00,VWS V14.01,2013-12-30 13:21:00,
2013-12-30 07:26:00,10.6,-0.2,30.42,ESE,113,2.0,2.0,61,0.00,,---,0.00,VWS V14.01,2013-12-30 13:26:00,
2013-12-30 07:30:00,10.5,0.1,30.42,ESE,116,0.0,4.0,62,0.00,,---,0.00,VWS V14.01,2013-12-30 13:30:00,
2013-12-30 07:31:00,10.7,0.3,30.42,ESE,113,0.0,4.0,62,0.00,,---,0.00,VWS V14.01,2013-12-30 13:31:00,
2013-12-30 07:36:00,10.7,0.6,30.42,ESE,105,1.0,2.0,63,0.00,,---,0.00,VWS V14.01,2013-12-30 13:36:00,
2013-12-30 07:40:00,10.6,-0.2,30.42,SE,130,0.0,4.0,61,0.00,,---,0.00,VWS V14.01,2013-12-30 13:40:00,
2013-12-30 07:41:00,10.8,0.7,30.42,ESE,104,0.0,4.0,63,0.00,,---,0.00,VWS V14.01,2013-12-30 13:41:00,
2013-12-30 07:46:00,10.9,1.1,30.42,SE,143,0.0,4.0,64,0.00,,---,0.00,VWS V14.01,2013-12-30 13:46:00,
2013-12-30 07:50:00,11.0,0.5,30.43,SE,131,1.0,4.0,62,0.00,,---,0.00,VWS V14.01,2013-12-30 13:50:00,
2013-12-30 07:55:00,11.0,0.2,30.42,SE,133,1.0,4.0,61,0.00,,---,0.00,VWS V14.01,2013-12-30 13:55:00,
2013-12-30 08:00:00,11.1,0.3,30.42,SE,132,2.0,4.0,61,0.00,,---,0.00,VWS V14.01,2013-12-30 14:00:00,
2013-12-30 08:05:00,11.2,0.7,30.43,SE,128,2.0,2.0,62,0.00,,---,0.00,VWS V14.01,2013-12-30 14:05:00,
2013-12-30 08:10:00,11.3,1.2,30.42,SE,128,4.0,4.0,63,0.00,,---,0.00,VWS V14.01,2013-12-30 14:10:00,
2013-12-30 08:15:00,11.4,1.3,30.42,SE,128,0.0,1.0,63,0.00,,---,0.00,VWS V14.01,2013-12-30 14:15:00,
2013-12-30 08:20:00,11.5,1.0,30.42,SE,141,4.0,4.0,62,0.00,,---,0.00,VWS V14.01,2013-12-30 14:20:00,
2013-12-30 08:25:00,11.6,1.1,30.41,SE,138,1.0,4.0,62,0.00,,---,0.00,VWS V14.01,2013-12-30 14:25:00,
2013-12-30 08:30:00,11.7,1.2,30.42,ESE,121,2.0,4.0,62,0.00,,---,0.00,VWS V14.01,2013-12-30 14:30:00,
2013-12-30 08:35:00,11.8,1.3,30.41,ESE,121,0.0,1.0,62,0.00,,---,0.00,VWS V14.01,2013-12-30 14:35:00,
2013-12-30 08:40:00,11.9,1.4,30.42,South,178,0.0,4.0,62,0.00,,---,0.00,VWS V14.01,2013-12-30 14:40:00,
2013-12-30 08:45:00,12.0,1.5,30.42,South,178,4.0,4.0,62,0.00,,---,0.00,VWS V14.01,2013-12-30 14:45:00,
2013-12-30 08:50:00,12.1,1.2,30.42,South,178,1.0,4.0,61,0.00,,---,0.00,VWS V14.01,2013-12-30 14:50:00,
2013-12-30 08:55:00,12.2,1.3,30.42,South,178,2.0,2.0,61,0.00,,---,0.00,VWS V14.01,2013-12-30 14:55:00,
2013-12-30 09:00:00,12.2,1.0,30.41,South,178,0.0,4.0,60,0.00,,---,0.00,VWS V14.01,2013-12-30 15:00:00,
2013-12-30 09:05:00,12.3,1.1,30.41,South,178,1.0,2.0,60,0.00,,---,0.00,VWS V14.01,2013-12-30 15:05:00,
2013-12-30 09:10:00,12.4,1.9,30.41,ESE,113,1.0,4.0,62,0.00,,---,0.00,VWS V14.01,2013-12-30 15:10:00,
2013-12-30 09:15:00,12.5,1.6,30.41,South,171,0.0,1.0,61,0.00,,---,0.00,VWS V14.01,2013-12-30 15:15:00,
2013-12-30 09:20:00,12.6,1.7,30.41,SE,140,4.0,6.0,61,0.00,,---,0.00,VWS V14.01,2013-12-30 15:20:00,
2013-12-30 09:25:00,12.7,1.5,30.40,SSE,165,0.0,0.0,60,0.00,,---,0.00,VWS V14.01,2013-12-30 15:25:00,
2013-12-30 09:30:00,12.9,1.6,30.39,SSE,159,2.0,5.0,60,0.00,,---,0.00,VWS V14.01,2013-12-30 15:30:00,
2013-12-30 09:35:00,13.1,1.8,30.39,SSE,159,1.0,4.0,60,0.00,,---,0.00,VWS V14.01,2013-12-30 15:35:00,
2013-12-30 09:40:00,13.4,2.1,30.38,SSE,163,1.0,5.0,60,0.00,,---,0.00,VWS V14.01,2013-12-30 15:40:00,
2013-12-30 09:45:00,13.6,2.0,30.39,South,174,2.0,5.0,59,0.00,,---,0.00,VWS V14.01,2013-12-30 15:45:00,
2013-12-30 09:50:00,13.9,2.2,30.39,SSE,158,1.0,5.0,59,0.00,,---,0.00,VWS V14.01,2013-12-30 15:50:00,
2013-12-30 09:55:00,14.1,2.0,30.39,East,98,2.0,6.0,58,0.00,,---,0.00,VWS V14.01,2013-12-30 15:55:00,
2013-12-30 10:00:00,14.4,2.7,30.40,South,182,0.0,6.0,59,0.00,,---,0.00,VWS V14.01,2013-12-30 16:00:00,
2013-12-30 10:05:00,14.7,3.0,30.40,SSW,194,0.0,2.0,59,0.00,,---,0.00,VWS V14.01,2013-12-30 16:05:00,
2013-12-30 10:10:00,15.0,2.9,30.39,SSW,211,1.0,7.0,58,0.00,,---,0.00,VWS V14.01,2013-12-30 16:10:00,
2013-12-30 10:15:00,15.4,3.7,30.40,South,175,1.0,1.0,59,0.00,,---,0.00,VWS V14.01,2013-12-30 16:15:00,
2013-12-30 10:20:00,15.7,3.6,30.40,SSE,157,1.0,2.0,58,0.00,,---,0.00,VWS V14.01,2013-12-30 16:20:00,
2013-12-30 10:25:00,16.0,3.8,30.40,SW,219,1.0,2.0,58,0.00,,---,0.00,VWS V14.01,2013-12-30 16:25:00,
2013-12-30 10:30:00,16.3,4.1,30.40,SSW,211,0.0,3.0,58,0.00,,---,0.00,VWS V14.01,2013-12-30 16:30:00,
2013-12-30 10:35:00,16.6,4.4,30.39,SSW,209,0.0,2.0,58,0.00,,---,0.00,VWS V14.01,2013-12-30 16:35:00,
2013-12-30 10:40:00,16.9,3.9,30.40,SSW,200,3.0,6.0,56,0.00,,---,0.00,VWS V14.01,2013-12-30 16:40:00,
2013-12-30 10:45:00,17.1,3.7,30.40,SSW,192,1.0,3.0,55,0.00,,---,0.00,VWS V14.01,2013-12-30 16:45:00,
2013-12-30 10:50:00,17.3,5.1,30.40,South,179,0.0,3.0,58,0.00,,---,0.00,VWS V14.01,2013-12-30 16:50:00,
2013-12-30 10:55:00,17.7,5.8,30.40,SSW,195,2.0,3.0,59,0.00,,---,0.00,VWS V14.01,2013-12-30 16:55:00,
2013-12-30 11:00:00,18.0,5.0,30.40,SSW,205,3.0,3.0,56,0.00,,---,0.00,VWS V14.01,2013-12-30 17:00:00,
2013-12-30 11:05:00,18.3,5.2,30.40,South,179,1.0,2.0,56,0.00,,---,0.00,VWS V14.01,2013-12-30 17:05:00,
2013-12-30 11:10:00,18.6,5.1,30.40,SSW,192,5.0,7.0,55,0.00,,---,0.00,VWS V14.01,2013-12-30 17:10:00,
2013-12-30 11:15:00,18.9,5.0,30.39,SSW,200,0.0,2.0,54,0.00,,---,0.00,VWS V14.01,2013-12-30 17:15:00,
2013-12-30 11:20:00,19.2,5.7,30.39,SSW,196,0.0,4.0,55,0.00,,---,0.00,VWS V14.01,2013-12-30 17:20:00,
2013-12-30 11:25:00,19.4,5.9,30.39,South,180,0.0,2.0,55,0.00,,---,0.00,VWS V14.01,2013-12-30 17:25:00,
2013-12-30 11:30:00,19.7,5.8,30.39,SW,228,1.0,7.0,54,0.00,,---,0.00,VWS V14.01,2013-12-30 17:30:00,
2013-12-30 11:35:00,19.9,5.9,30.39,SW,215,0.0,1.0,54,0.00,,---,0.00,VWS V14.01,2013-12-30 17:35:00,
2013-12-30 11:40:00,20.1,5.7,30.38,SSW,195,0.0,4.0,53,0.00,,---,0.00,VWS V14.01,2013-12-30 17:40:00,
2013-12-30 11:45:00,20.3,6.3,30.39,ESE,120,0.0,1.0,54,0.00,,---,0.00,VWS V14.01,2013-12-30 17:45:00,
2013-12-30 11:50:00,20.5,6.1,30.37,ESE,120,0.0,4.0,53,0.00,,---,0.00,VWS V14.01,2013-12-30 17:50:00,
2013-12-30 11:55:00,20.8,6.8,30.36,SE,138,1.0,4.0,54,0.00,,---,0.00,VWS V14.01,2013-12-30 17:55:00,
2013-12-30 12:00:00,21.1,6.2,30.36,SW,229,2.0,5.0,52,0.00,,---,0.00,VWS V14.01,2013-12-30 18:00:00,
2013-12-30 12:05:00,21.3,6.0,30.36,SW,228,1.0,2.0,51,0.00,,---,0.00,VWS V14.01,2013-12-30 18:05:00,
2013-12-30 12:10:00,21.5,7.0,30.35,SSW,213,1.0,4.0,53,0.00,,---,0.00,VWS V14.01,2013-12-30 18:10:00,
2013-12-30 12:15:00,21.8,6.9,30.35,SSW,209,1.0,2.0,52,0.00,,---,0.00,VWS V14.01,2013-12-30 18:15:00,
2013-12-30 12:20:00,21.9,6.1,30.35,South,189,5.0,6.0,50,0.00,,---,0.00,VWS V14.01,2013-12-30 18:20:00,
2013-12-30 12:25:00,22.0,6.7,30.35,SW,232,0.0,2.0,51,0.00,,---,0.00,VWS V14.01,2013-12-30 18:25:00,
2013-12-30 12:30:00,22.1,7.2,30.34,SW,225,1.0,3.0,52,0.00,,---,0.00,VWS V14.01,2013-12-30 18:30:00,
2013-12-30 12:35:00,22.3,6.9,30.34,SSE,156,1.0,2.0,51,0.00,,---,0.00,VWS V14.01,2013-12-30 18:35:00,
2013-12-30 12:40:00,22.5,7.5,30.33,WSW,240,1.0,4.0,52,0.00,,---,0.00,VWS V14.01,2013-12-30 18:40:00,
2013-12-30 12:45:00,22.7,7.7,30.33,SW,236,1.0,1.0,52,0.00,,---,0.00,VWS V14.01,2013-12-30 18:45:00,
2013-12-30 12:50:00,22.7,7.3,30.33,SSW,198,1.0,5.0,51,0.00,,---,0.00,VWS V14.01,2013-12-30 18:50:00,
2013-12-30 12:55:00,22.8,7.4,30.32,WSW,250,0.0,2.0,51,0.00,,---,0.00,VWS V14.01,2013-12-30 18:55:00,
2013-12-30 13:00:00,23.0,8.4,30.31,SSW,204,3.0,6.0,53,0.00,,---,0.00,VWS V14.01,2013-12-30 19:00:00,
2013-12-30 13:05:00,23.1,8.1,30.31,WSW,246,5.0,8.0,52,0.00,,---,0.00,VWS V14.01,2013-12-30 19:05:00,
2013-12-30 13:10:00,23.2,7.8,30.30,SSW,206,1.0,8.0,51,0.00,,---,0.00,VWS V14.01,2013-12-30 19:10:00,
2013-12-30 13:15:00,23.4,8.4,30.31,SW,223,3.0,10.0,52,0.00,,---,0.00,VWS V14.01,2013-12-30 19:15:00,
2013-12-30 13:20:00,23.7,8.2,30.31,SSW,211,2.0,10.0,51,0.00,,---,0.00,VWS V14.01,2013-12-30 19:20:00,
2013-12-30 13:25:00,23.9,8.4,30.31,WSW,237,0.0,2.0,51,0.00,,---,0.00,VWS V14.01,2013-12-30 19:25:00,
2013-12-30 13:30:00,24.2,9.6,30.31,SE,146,1.0,4.0,53,0.00,,---,0.00,VWS V14.01,2013-12-30 19:30:00,
2013-12-30 13:35:00,24.6,9.1,30.30,SW,220,1.0,2.0,51,0.00,,---,0.00,VWS V14.01,2013-12-30 19:35:00,
2013-12-30 13:40:00,24.9,9.8,30.30,SSW,194,2.0,6.0,52,0.00,,---,0.00,VWS V14.01,2013-12-30 19:40:00,
2013-12-30 13:45:00,25.3,10.1,30.31,SSW,192,5.0,5.0,52,0.00,,---,0.00,VWS V14.01,2013-12-30 19:45:00,
2013-12-30 13:50:00,25.8,10.2,30.30,SSW,194,2.0,7.0,51,0.00,,---,0.00,VWS V14.01,2013-12-30 19:50:00,
2013-12-30 13:55:00,26.0,9.5,30.30,South,190,4.0,6.0,49,0.00,,---,0.00,VWS V14.01,2013-12-30 19:55:00,
2013-12-30 14:00:00,26.2,10.1,30.30,SSW,196,5.0,7.0,50,0.00,,---,0.00,VWS V14.01,2013-12-30 20:00:00,
2013-12-30 14:05:00,26.4,10.3,30.30,South,179,1.0,4.0,50,0.00,,---,0.00,VWS V14.01,2013-12-30 20:05:00,
2013-12-30 14:10:00,26.5,9.5,30.30,WSW,240,6.0,7.0,48,0.00,,---,0.00,VWS V14.01,2013-12-30 20:10:00,
2013-12-30 14:15:00,26.6,9.6,30.29,SSW,210,1.0,5.0,48,0.00,,---,0.00,VWS V14.01,2013-12-30 20:15:00,
2013-12-30 14:20:00,26.7,10.1,30.29,SSW,204,2.0,8.0,49,0.00,,---,0.00,VWS V14.01,2013-12-30 20:20:00,
2013-12-30 14:25:00,26.9,9.9,30.29,SSW,202,4.0,6.0,48,0.00,,---,0.00,VWS V14.01,2013-12-30 20:25:00,
2013-12-30 14:30:00,27.0,9.9,30.29,WSW,248,4.0,8.0,48,0.00,,---,0.00,VWS V14.01,2013-12-30 20:30:00,
2013-12-30 14:35:00,27.2,10.1,30.29,SSW,195,2.0,4.0,48,0.00,,---,0.00,VWS V14.01,2013-12-30 20:35:00,
2013-12-30 14:40:00,27.3,10.7,30.28,South,185,3.0,7.0,49,0.00,,---,0.00,VWS V14.01,2013-12-30 20:40:00,
2013-12-30 14:45:00,27.6,10.9,30.28,South,178,4.0,6.0,49,0.00,,---,0.00,VWS V14.01,2013-12-30 20:45:00,
2013-12-30 14:50:00,27.8,10.7,30.30,SSW,205,5.0,15.0,48,0.00,,---,0.00,VWS V14.01,2013-12-30 20:50:00,
2013-12-30 14:55:00,27.9,10.8,30.30,West,276,2.0,2.0,48,0.00,,---,0.00,VWS V14.01,2013-12-30 20:55:00,
2013-12-30 15:00:00,27.9,10.8,30.30,SSW,206,4.0,8.0,48,0.00,,---,0.00,VWS V14.01,2013-12-30 21:00:00,
2013-12-30 15:05:00,27.9,11.2,30.30,SSW,200,1.0,7.0,49,0.00,,---,0.00,VWS V14.01,2013-12-30 21:05:00,
2013-12-30 15:10:00,28.0,11.8,30.30,WSW,252,3.0,7.0,50,0.00,,---,0.00,VWS V14.01,2013-12-30 21:10:00,
2013-12-30 15:15:00,28.0,11.8,30.30,WSW,246,3.0,3.0,50,0.00,,---,0.00,VWS V14.01,2013-12-30 21:15:00,
2013-12-30 15:20:00,28.1,11.9,30.31,SW,232,4.0,10.0,50,0.00,,---,0.00,VWS V14.01,2013-12-30 21:20:00,
2013-12-30 15:25:00,28.1,11.9,30.31,WNW,285,2.0,2.0,50,0.00,,---,0.00,VWS V14.01,2013-12-30 21:25:00,
2013-12-30 15:30:00,28.1,11.9,30.31,WSW,250,2.0,8.0,50,0.00,,---,0.00,VWS V14.01,2013-12-30 21:30:00,
2013-12-30 15:35:00,28.2,12.4,30.31,SW,233,3.0,4.0,51,0.00,,---,0.00,VWS V14.01,2013-12-30 21:35:00,
2013-12-30 15:40:00,28.3,12.5,30.31,SSW,207,1.0,9.0,51,0.00,,---,0.00,VWS V14.01,2013-12-30 21:40:00,
2013-12-30 15:45:00,28.3,12.9,30.30,SSW,205,0.0,2.0,52,0.00,,---,0.00,VWS V14.01,2013-12-30 21:45:00,
2013-12-30 15:50:00,28.4,13.0,30.30,WSW,243,1.0,9.0,52,0.00,,---,0.00,VWS V14.01,2013-12-30 21:50:00,
2013-12-30 15:55:00,28.5,13.1,30.30,SW,228,2.0,3.0,52,0.00,,---,0.00,VWS V14.01,2013-12-30 21:55:00,
2013-12-30 16:00:00,28.5,13.1,30.30,SSW,213,3.0,9.0,52,0.00,,---,0.00,VWS V14.01,2013-12-30 22:00:00,
2013-12-30 16:05:00,28.5,13.1,30.31,SW,229,4.0,5.0,52,0.00,,---,0.00,VWS V14.01,2013-12-30 22:05:00,
2013-12-30 16:10:00,28.6,13.2,30.31,SW,229,6.0,6.0,52,0.00,,---,0.00,VWS V14.01,2013-12-30 22:10:00,
2013-12-30 16:15:00,28.7,13.8,30.30,WSW,245,2.0,6.0,53,0.00,,---,0.00,VWS V14.01,2013-12-30 22:15:00,
2013-12-30 16:20:00,28.7,13.8,30.30,WSW,238,3.0,11.0,53,0.00,,---,0.00,VWS V14.01,2013-12-30 22:20:00,
2013-12-30 16:25:00,28.8,14.3,30.30,SW,236,0.0,0.0,54,0.00,,---,0.00,VWS V14.01,2013-12-30 22:25:00,
2013-12-30 16:30:00,28.8,14.3,30.30,WSW,248,2.0,8.0,54,0.00,,---,0.00,VWS V14.01,2013-12-30 22:30:00,
2013-12-30 16:35:00,28.9,14.4,30.30,SSW,192,0.0,1.0,54,0.00,,---,0.00,VWS V14.01,2013-12-30 22:35:00,
2013-12-30 16:40:00,28.9,14.4,30.30,SSW,200,0.0,5.0,54,0.00,,---,0.00,VWS V14.01,2013-12-30 22:40:00,
2013-12-30 16:45:00,29.0,14.4,30.30,SSW,198,2.0,3.0,54,0.00,,---,0.00,VWS V14.01,2013-12-30 22:45:00,
2013-12-30 16:50:00,29.0,14.4,30.29,SSW,203,3.0,6.0,54,0.00,,---,0.00,VWS V14.01,2013-12-30 22:50:00,
2013-12-30 16:55:00,29.0,14.9,30.29,South,173,2.0,2.0,55,0.00,,---,0.00,VWS V14.01,2013-12-30 22:55:00,
2013-12-30 17:00:00,29.0,14.4,30.30,South,178,0.0,5.0,54,0.00,,---,0.00,VWS V14.01,2013-12-30 23:00:00,
2013-12-30 17:05:00,29.0,14.9,30.30,South,184,0.0,2.0,55,0.00,,---,0.00,VWS V14.01,2013-12-30 23:05:00,
2013-12-30 17:10:00,29.1,14.5,30.29,South,184,3.0,3.0,54,0.00,,---,0.00,VWS V14.01,2013-12-30 23:10:00,
2013-12-30 17:15:00,29.1,14.5,30.29,SW,233,2.0,3.0,54,0.00,,---,0.00,VWS V14.01,2013-12-30 23:15:00,
2013-12-30 17:20:00,29.1,14.1,30.29,SW,233,0.0,3.0,53,0.00,,---,0.00,VWS V14.01,2013-12-30 23:20:00,
2013-12-30 17:25:00,29.0,14.4,30.29,SW,233,0.0,0.0,54,0.00,,---,0.00,VWS V14.01,2013-12-30 23:25:00,
2013-12-30 17:30:00,29.0,14.4,30.29,SW,233,0.0,2.0,54,0.00,,---,0.00,VWS V14.01,2013-12-30 23:30:00,
2013-12-30 17:35:00,28.8,14.3,30.29,SW,233,0.0,0.0,54,0.00,,---,0.00,VWS V14.01,2013-12-30 23:35:00,
2013-12-30 17:40:00,28.7,13.8,30.30,SW,233,0.0,0.0,53,0.00,,---,0.00,VWS V14.01,2013-12-30 23:40:00,
2013-12-30 17:45:00,28.4,13.9,30.31,SW,233,1.0,2.0,54,0.00,,---,0.00,VWS V14.01,2013-12-30 23:45:00,
2013-12-30 17:50:00,28.3,14.2,30.31,SW,233,0.0,2.0,55,0.00,,---,0.00,VWS V14.01,2013-12-30 23:50:00,
2013-12-30 17:55:00,28.1,14.0,30.31,SW,233,0.0,0.0,55,0.00,,---,0.00,VWS V14.01,2013-12-30 23:55:00,
2013-12-30 18:00:00,28.0,14.3,30.31,SSW,208,1.0,2.0,56,0.00,,---,0.00,VWS V14.01,2013-12-31 00:00:00,
2013-12-30 18:05:00,27.9,13.8,30.31,SSW,209,2.0,2.0,55,0.00,,---,0.00,VWS V14.01,2013-12-31 00:05:00,
2013-12-30 18:10:00,27.9,14.2,30.31,SSW,209,1.0,2.0,56,0.00,,---,0.00,VWS V14.01,2013-12-31 00:10:00,
2013-12-30 18:15:00,27.9,14.2,30.31,SSW,207,2.0,2.0,56,0.00,,---,0.00,VWS V14.01,2013-12-31 00:15:00,
2013-12-30 18:20:00,28.0,14.8,30.32,SSW,207,0.0,2.0,57,0.00,,---,0.00,VWS V14.01,2013-12-31 00:20:00,
2013-12-30 18:25:00,28.1,14.8,30.31,SSW,207,0.0,2.0,57,0.00,,---,0.00,VWS V14.01,2013-12-31 00:25:00,
2013-12-30 18:30:00,28.2,14.9,30.31,SSW,209,3.0,3.0,57,0.00,,---,0.00,VWS V14.01,2013-12-31 00:30:00,
2013-12-30 18:35:00,28.3,15.4,30.31,SSW,209,0.0,0.0,58,0.00,,---,0.00,VWS V14.01,2013-12-31 00:35:00,
2013-12-30 18:40:00,28.4,15.9,30.31,SSW,192,1.0,5.0,59,0.00,,---,0.00,VWS V14.01,2013-12-31 00:40:00,
2013-12-30 18:45:00,28.5,15.6,30.31,South,190,0.0,0.0,58,0.00,,---,0.00,VWS V14.01,2013-12-31 00:45:00,
2013-12-30 18:50:00,28.5,15.6,30.31,South,175,2.0,4.0,58,0.00,,---,0.00,VWS V14.01,2013-12-31 00:50:00,
2013-12-30 18:54:00,28.4,15.5,30.31,South,181,0.0,1.0,58,0.00,,---,0.00,VWS V14.01,2013-12-31 00:54:00,
2013-12-30 18:59:00,28.4,15.5,30.32,SSW,205,1.0,4.0,58,0.00,,---,0.00,VWS V14.01,2013-12-31 00:59:00,
2013-12-30 19:00:00,28.5,15.6,30.31,South,190,0.0,5.0,58,0.00,,---,0.00,VWS V14.01,2013-12-31 01:00:00,
2013-12-30 19:04:00,28.3,15.4,30.32,SSW,207,1.0,1.0,58,0.00,,---,0.00,VWS V14.01,2013-12-31 01:04:00,
2013-12-30 19:09:00,28.1,15.6,30.32,SSW,213,2.0,4.0,59,0.00,,---,0.00,VWS V14.01,2013-12-31 01:09:00,
2013-12-30 19:10:00,28.4,15.5,30.31,South,181,1.0,4.0,58,0.00,,---,0.00,VWS V14.01,2013-12-31 01:10:00,
2013-12-30 19:14:00,28.0,15.9,30.32,SW,214,0.0,0.0,60,0.00,,---,0.00,VWS V14.01,2013-12-31 01:14:00,
2013-12-30 19:19:00,27.9,15.8,30.33,SSW,213,0.0,2.0,60,0.00,,---,0.00,VWS V14.01,2013-12-31 01:19:00,
2013-12-30 19:20:00,28.3,15.4,30.32,SSW,207,0.0,4.0,58,0.00,,---,0.00,VWS V14.01,2013-12-31 01:20:00,
2013-12-30 19:24:00,27.9,16.2,30.33,SSW,213,0.0,0.0,61,0.00,,---,0.00,VWS V14.01,2013-12-31 01:24:00,
2013-12-30 19:29:00,27.8,16.1,30.33,SSW,212,0.0,3.0,61,0.00,,---,0.00,VWS V14.01,2013-12-31 01:29:00,
2013-12-30 19:30:00,28.0,15.9,30.32,SW,214,0.0,4.0,60,0.00,,---,0.00,VWS V14.01,2013-12-31 01:30:00,
2013-12-30 19:34:00,27.8,16.5,30.33,SSW,212,0.0,0.0,62,0.00,,---,0.00,VWS V14.01,2013-12-31 01:34:00,
2013-12-30 19:39:00,27.8,16.5,30.33,SSW,213,0.0,1.0,62,0.00,,---,0.00,VWS V14.01,2013-12-31 01:39:00,
2013-12-30 19:40:00,27.9,16.2,30.33,SSW,213,0.0,2.0,61,0.00,,---,0.00,VWS V14.01,2013-12-31 01:40:00,
2013-12-30 19:44:00,27.7,16.4,30.34,SSW,211,0.0,2.0,62,0.00,,---,0.00,VWS V14.01,2013-12-31 01:44:00,
2013-12-30 19:49:00,27.6,16.3,30.34,SSW,212,0.0,3.0,62,0.00,,---,0.00,VWS V14.01,2013-12-31 01:49:00,
2013-12-30 19:50:00,27.8,16.5,30.33,SSW,212,0.0,3.0,62,0.00,,---,0.00,VWS V14.01,2013-12-31 01:50:00,
2013-12-30 19:54:00,27.5,16.6,30.34,SSW,198,2.0,4.0,63,0.00,,---,0.00,VWS V14.01,2013-12-31 01:54:00,
2013-12-30 19:59:00,27.5,16.6,30.35,SSW,207,1.0,3.0,63,0.00,,---,0.00,VWS V14.01,2013-12-31 01:59:00,
2013-12-30 20:00:00,27.7,16.4,30.34,SSW,211,0.0,2.0,62,0.00,,---,0.00,VWS V14.01,2013-12-31 02:00:00,
2013-12-30 20:04:00,27.5,16.9,30.35,SSW,208,1.0,3.0,64,0.00,,---,0.00,VWS V14.01,2013-12-31 02:04:00,
2013-12-30 20:09:00,27.5,16.9,30.35,SSW,208,0.0,2.0,64,0.00,,---,0.00,VWS V14.01,2013-12-31 02:09:00,
2013-12-30 20:10:00,27.5,16.6,30.34,SSW,198,2.0,4.0,63,0.00,,---,0.00,VWS V14.01,2013-12-31 02:10:00,
2013-12-30 20:14:00,27.4,16.8,30.35,SSW,212,0.0,2.0,64,0.00,,---,0.00,VWS V14.01,2013-12-31 02:14:00,
2013-12-30 20:19:00,27.4,17.2,30.35,SSW,212,0.0,2.0,65,0.00,,---,0.00,VWS V14.01,2013-12-31 02:19:00,
2013-12-30 20:20:00,27.5,16.9,30.35,SSW,208,0.0,3.0,64,0.00,,---,0.00,VWS V14.01,2013-12-31 02:20:00,
2013-12-30 20:24:00,27.3,17.1,30.36,SSW,212,1.0,2.0,65,0.00,,---,0.00,VWS V14.01,2013-12-31 02:24:00,
2013-12-30 20:29:00,27.2,17.0,30.36,SW,232,0.0,3.0,65,0.00,,---,0.00,VWS V14.01,2013-12-31 02:29:00,
2013-12-30 20:30:00,27.4,16.8,30.35,SSW,212,0.0,2.0,64,0.00,,---,0.00,VWS V14.01,2013-12-31 02:30:00,
2013-12-30 20:34:00,27.1,17.3,30.36,SW,232,0.0,3.0,66,0.00,,---,0.00,VWS V14.01,2013-12-31 02:34:00,
2013-12-30 20:39:00,27.0,17.2,30.36,SW,232,1.0,1.0,66,0.00,,---,0.00,VWS V14.01,2013-12-31 02:39:00,
2013-12-30 20:40:00,27.3,17.1,30.36,SSW,212,2.0,2.0,65,0.00,,---,0.00,VWS V14.01,2013-12-31 02:40:00,
2013-12-30 20:44:00,26.9,17.4,30.37,West,263,0.0,4.0,67,0.00,,---,0.00,VWS V14.01,2013-12-31 02:44:00,
2013-12-30 20:49:00,26.8,17.7,30.37,West,277,0.0,5.0,68,0.00,,---,0.00,VWS V14.01,2013-12-31 02:49:00,
2013-12-30 20:50:00,27.1,17.3,30.36,SW,232,1.0,3.0,66,0.00,,---,0.00,VWS V14.01,2013-12-31 02:50:00,
2013-12-30 20:54:00,26.7,17.6,30.37,WNW,302,1.0,5.0,68,0.00,,---,0.00,VWS V14.01,2013-12-31 02:54:00,
2013-12-30 20:59:00,26.8,18.0,30.37,WNW,288,2.0,2.0,69,0.00,,---,0.00,VWS V14.01,2013-12-31 02:59:00,
2013-12-30 21:00:00,26.9,17.4,30.37,West,263,0.0,4.0,67,0.00,,---,0.00,VWS V14.01,2013-12-31 03:00:00,
2013-12-30 21:04:00,26.7,17.9,30.38,WNW,286,0.0,4.0,69,0.00,,---,0.00,VWS V14.01,2013-12-31 03:04:00,
2013-12-30 21:09:00,26.7,17.9,30.38,WNW,286,0.0,2.0,69,0.00,,---,0.00,VWS V14.01,2013-12-31 03:09:00,
2013-12-30 21:10:00,26.7,17.6,30.37,WNW,302,1.0,5.0,68,0.00,,---,0.00,VWS V14.01,2013-12-31 03:10:00,
2013-12-30 21:14:00,26.7,18.2,30.38,WNW,286,0.0,2.0,70,0.00,,---,0.00,VWS V14.01,2013-12-31 03:14:00,
2013-12-30 21:19:00,26.6,18.1,30.38,WNW,286,0.0,2.0,70,0.00,,---,0.00,VWS V14.01,2013-12-31 03:19:00,
2013-12-30 21:20:00,26.7,17.9,30.38,WNW,286,0.0,4.0,69,0.00,,---,0.00,VWS V14.01,2013-12-31 03:20:00,
2013-12-30 21:24:00,26.5,18.0,30.38,WNW,286,0.0,2.0,70,0.00,,---,0.00,VWS V14.01,2013-12-31 03:24:00,
2013-12-30 21:29:00,26.4,18.0,30.38,WNW,286,0.0,4.0,70,0.00,,---,0.00,VWS V14.01,2013-12-31 03:29:00,
2013-12-30 21:30:00,26.7,18.2,30.38,WNW,286,0.0,2.0,70,0.00,,---,0.00,VWS V14.01,2013-12-31 03:30:00,
2013-12-30 21:34:00,26.3,18.2,30.38,WNW,287,1.0,4.0,71,0.00,,---,0.00,VWS V14.01,2013-12-31 03:34:00,
2013-12-30 21:39:00,26.2,18.1,30.38,WNW,287,0.0,2.0,71,0.00,,---,0.00,VWS V14.01,2013-12-31 03:39:00,
2013-12-30 21:40:00,26.5,18.0,30.38,WNW,286,0.0,2.0,70,0.00,,---,0.00,VWS V14.01,2013-12-31 03:40:00,
2013-12-30 21:44:00,26.1,18.3,30.38,WNW,287,0.0,4.0,72,0.00,,---,0.00,VWS V14.01,2013-12-31 03:44:00,
2013-12-30 21:49:00,26.1,18.3,30.39,NW,310,0.0,4.0,72,0.00,,---,0.00,VWS V14.01,2013-12-31 03:49:00,
2013-12-30 21:50:00,26.3,18.2,30.38,WNW,287,1.0,4.0,71,0.00,,---,0.00,VWS V14.01,2013-12-31 03:50:00,
2013-12-30 21:54:00,26.1,18.6,30.39,West,268,0.0,4.0,73,0.00,,---,0.00,VWS V14.01,2013-12-31 03:54:00,
2013-12-30 21:59:00,26.2,18.7,30.39,West,266,1.0,4.0,73,0.00,,---,0.00,VWS V14.01,2013-12-31 03:59:00,
2013-12-30 22:00:00,26.2,18.4,30.38,WNW,287,0.0,4.0,72,0.00,,---,0.00,VWS V14.01,2013-12-31 04:00:00,
2013-12-30 22:04:00,26.2,18.7,30.40,WSW,246,3.0,4.0,73,0.00,,---,0.00,VWS V14.01,2013-12-31 04:04:00,
2013-12-30 22:09:00,26.3,19.1,30.40,West,280,1.0,5.0,74,0.00,,---,0.00,VWS V14.01,2013-12-31 04:09:00,
2013-12-30 22:10:00,26.1,18.6,30.39,West,268,0.0,4.0,73,0.00,,---,0.00,VWS V14.01,2013-12-31 04:10:00,
2013-12-30 22:14:00,26.5,19.4,30.40,West,276,0.0,5.0,74,0.00,,---,0.00,VWS V14.01,2013-12-31 04:14:00,
2013-12-30 22:19:00,26.6,19.4,30.40,WNW,298,1.0,6.0,74,0.00,,---,0.00,VWS V14.01,2013-12-31 04:19:00,
2013-12-30 22:20:00,26.2,18.7,30.40,WSW,246,0.0,4.0,73,0.00,,---,0.00,VWS V14.01,2013-12-31 04:20:00,
2013-12-30 22:24:00,26.7,19.5,30.41,SW,225,1.0,6.0,74,0.00,,---,0.00,VWS V14.01,2013-12-31 04:24:00,
2013-12-30 22:29:00,26.7,19.2,30.40,West,275,0.0,5.0,73,0.00,,---,0.00,VWS V14.01,2013-12-31 04:29:00,
2013-12-30 22:30:00,26.5,19.4,30.40,West,276,0.0,5.0,74,0.00,,---,0.00,VWS V14.01,2013-12-31 04:30:00,
2013-12-30 22:34:00,26.7,19.2,30.41,WNW,300,4.0,5.0,73,0.00,,---,0.00,VWS V14.01,2013-12-31 04:34:00,
2013-12-30 22:39:00,26.7,19.2,30.40,NW,316,2.0,5.0,73,0.00,,---,0.00,VWS V14.01,2013-12-31 04:39:00,
2013-12-30 22:40:00,26.7,19.5,30.41,SW,225,1.0,6.0,74,0.00,,---,0.00,VWS V14.01,2013-12-31 04:40:00,
2013-12-30 22:44:00,26.7,19.2,30.41,SW,228,4.0,5.0,73,0.00,,---,0.00,VWS V14.01,2013-12-31 04:44:00,
2013-12-30 22:49:00,26.6,19.1,30.41,WSW,256,0.0,5.0,73,0.00,,---,0.00,VWS V14.01,2013-12-31 04:49:00,
2013-12-30 22:50:00,26.8,19.3,30.41,WNW,300,0.0,5.0,73,0.00,,---,0.00,VWS V14.01,2013-12-31 04:50:00,
2013-12-30 22:54:00,26.5,19.0,30.41,West,259,3.0,5.0,73,0.00,,---,0.00,VWS V14.01,2013-12-31 04:54:00,
2013-12-30 22:59:00,26.4,18.9,30.42,WNW,285,1.0,5.0,73,0.00,,---,0.00,VWS V14.01,2013-12-31 04:59:00,
2013-12-30 23:00:00,26.7,19.2,30.41,West,270,4.0,5.0,73,0.00,,---,0.00,VWS V14.01,2013-12-31 05:00:00,
2013-12-30 23:01:00,26.4,18.9,30.41,WNW,285,0.0,5.0,73,0.00,,---,0.00,VWS V14.01,2013-12-31 05:01:00,
2013-12-30 23:02:00,26.4,18.9,30.41,WNW,286,2.0,5.0,73,0.00,,---,0.00,VWS V14.01,2013-12-31 05:02:00,
2013-12-30 23:07:00,26.3,18.8,30.41,NW,305,1.0,4.0,73,0.00,,---,0.00,VWS V14.01,2013-12-31 05:07:00,
2013-12-30 23:10:00,26.5,19.0,30.41,WSW,246,4.0,5.0,73,0.00,,---,0.00,VWS V14.01,2013-12-31 05:10:00,
2013-12-30 23:12:00,26.2,18.7,30.41,WNW,294,1.0,5.0,73,0.00,,---,0.00,VWS V14.01,2013-12-31 05:12:00,
2013-12-30 23:17:00,26.1,18.6,30.41,West,265,4.0,4.0,73,0.00,,---,0.00,VWS V14.01,2013-12-31 05:17:00,
2013-12-30 23:20:00,26.3,18.8,30.41,NW,306,1.0,5.0,73,0.00,,---,0.00,VWS V14.01,2013-12-31 05:20:00,
2013-12-30 23:22:00,26.0,18.5,30.42,West,280,1.0,5.0,73,0.00,,---,0.00,VWS V14.01,2013-12-31 05:22:00,
2013-12-30 23:27:00,25.8,18.4,30.42,WSW,248,1.0,3.0,73,0.00,,---,0.00,VWS V14.01,2013-12-31 05:27:00,
2013-12-30 23:30:00,26.1,18.6,30.41,WSW,249,1.0,5.0,73,0.00,,---,0.00,VWS V14.01,2013-12-31 05:30:00,
2013-12-30 23:32:00,25.7,18.3,30.42,West,262,6.0,8.0,73,0.00,,---,0.00,VWS V14.01,2013-12-31 05:32:00,
2013-12-30 23:36:00,25.6,18.2,30.42,WNW,288,0.0,4.0,73,0.00,,---,0.00,VWS V14.01,2013-12-31 05:36:00,
2013-12-30 23:40:00,25.9,18.5,30.42,West,280,0.0,5.0,73,0.00,,---,0.00,VWS V14.01,2013-12-31 05:40:00,
2013-12-30 23:41:00,25.5,17.8,30.42,West,279,2.0,4.0,72,0.00,,---,0.00,VWS V14.01,2013-12-31 05:41:00,
2013-12-30 23:46:00,25.4,17.6,30.41,West,274,0.0,4.0,72,0.00,,---,0.00,VWS V14.01,2013-12-31 05:46:00,
2013-12-30 23:50:00,25.6,18.2,30.42,WNW,285,0.0,8.0,73,0.00,,---,0.00,VWS V14.01,2013-12-31 05:50:00,
2013-12-30 23:51:00,25.3,17.2,30.41,West,265,2.0,10.0,71,0.00,,---,0.00,VWS V14.01,2013-12-31 05:51:00,
2013-12-30 23:56:00,25.1,17.0,30.40,East,89,2.0,7.0,71,0.00,,---,0.00,VWS V14.01,2013-12-31 05:56:00,